createdAt,value
2023-03-20T00:00:30.006Z,101693.41
2023-03-20T00:02:57.710Z,101696.88
2023-03-20T00:05:26.042Z,101695.16
2023-03-20T00:07:53.751Z,101693.44
2023-03-20T00:10:22.921Z,101693.41
2023-03-20T00:12:51.721Z,101709.09
2023-03-20T00:15:27.756Z,101706.47
2023-03-20T00:17:55.498Z,101703.84
2023-03-20T00:20:23.184Z,101696.03
2023-03-20T00:22:51.208Z,101701.28
2023-03-20T00:25:19.742Z,101698.66
2023-03-20T00:27:48.871Z,101692.53
2023-03-20T00:30:22.310Z,101702.16
2023-03-20T00:32:50.455Z,101696.03
2023-03-20T00:35:19.877Z,101698.69
2023-03-20T00:37:47.604Z,101696.97
2023-03-20T00:40:15.638Z,101701.34
2023-03-20T00:42:43.812Z,101698.72
2023-03-20T00:45:14.315Z,101698.72
2023-03-20T00:47:41.999Z,101696.16
2023-03-20T00:50:17.931Z,101697.00
2023-03-20T00:52:45.629Z,101698.72
2023-03-20T00:55:13.444Z,101701.38
2023-03-20T00:57:43.556Z,101695.25
2023-03-20T01:00:23.408Z,101709.25
2023-03-20T01:02:51.252Z,101711.00
2023-03-20T01:05:19.422Z,101710.16
2023-03-20T01:07:47.224Z,101703.13
2023-03-20T01:10:15.055Z,101707.53
2023-03-20T01:12:42.924Z,101703.16
2023-03-20T01:15:22.513Z,101701.41
2023-03-20T01:17:50.333Z,101703.16
2023-03-20T01:20:19.899Z,101705.78
2023-03-20T01:22:47.588Z,101708.44
2023-03-20T01:25:16.055Z,101709.31
2023-03-20T01:27:44.616Z,101704.94
2023-03-20T01:30:22.703Z,101703.19
2023-03-20T01:32:50.943Z,101699.72
2023-03-20T01:35:19.493Z,101704.06
2023-03-20T01:37:48.105Z,101700.59
2023-03-20T01:40:33.087Z,101699.72
2023-03-20T01:43:01.587Z,101697.97
2023-03-20T01:45:32.871Z,101703.22
2023-03-20T01:48:00.555Z,101698.00
2023-03-20T01:50:30.300Z,101699.78
2023-03-20T01:53:11.119Z,101699.78
2023-03-20T01:55:38.800Z,101699.78
2023-03-20T01:58:08.514Z,101702.41
2023-03-20T02:00:38.166Z,101708.50
2023-03-20T02:03:06.945Z,101704.16
2023-03-20T02:05:34.894Z,101705.88
2023-03-20T02:08:10.561Z,101708.56
2023-03-20T02:10:38.232Z,101714.66
2023-03-20T02:13:05.923Z,101705.94
2023-03-20T02:15:34.219Z,101711.22
2023-03-20T02:18:03.717Z,101700.69
2023-03-20T02:20:42.007Z,101696.34
2023-03-20T02:23:50.969Z,101695.47
2023-03-20T02:26:32.834Z,101690.22
2023-03-20T02:29:54.600Z,101703.34
2023-03-20T02:32:37.818Z,101693.75
2023-03-20T02:35:59.370Z,101687.59
2023-03-20T02:38:55.764Z,101687.59
2023-03-20T02:41:25.364Z,101679.75
2023-03-20T02:43:56.506Z,101677.13
2023-03-20T02:46:28.866Z,101678.00
2023-03-20T02:48:58.003Z,101676.28
2023-03-20T02:51:28.891Z,101671.94
2023-03-20T02:54:00.756Z,101670.16
2023-03-20T02:56:31.528Z,101670.16
2023-03-20T02:59:02.377Z,101650.06
2023-03-20T03:01:33.179Z,101660.53
2023-03-20T03:04:02.213Z,101655.28
2023-03-20T03:06:31.579Z,101650.94
2023-03-20T03:09:02.404Z,101651.78
2023-03-20T03:11:30.547Z,101657.91
2023-03-20T03:13:58.285Z,101654.41
2023-03-20T03:16:27.689Z,101661.44
2023-03-20T03:19:01.681Z,101653.56
2023-03-20T03:21:29.867Z,101662.28
2023-03-20T03:23:57.547Z,101651.78
2023-03-20T03:26:27.782Z,101653.56
2023-03-20T03:28:56.771Z,101647.44
2023-03-20T03:31:24.624Z,101643.06
2023-03-20T03:33:53.440Z,101643.91
2023-03-20T03:36:26.960Z,101644.81
2023-03-20T03:38:56.738Z,101647.44
2023-03-20T03:41:28.863Z,101641.31
2023-03-20T03:44:01.155Z,101650.94
2023-03-20T03:46:34.041Z,101642.22
2023-03-20T03:49:01.920Z,101638.72
2023-03-20T03:51:30.560Z,101641.38
2023-03-20T03:53:59.892Z,101639.59
2023-03-20T03:56:29.457Z,101644.00
2023-03-20T03:58:59.778Z,101645.72
2023-03-20T04:01:27.559Z,101640.47
2023-03-20T04:03:57.334Z,101638.72
2023-03-20T04:06:25.903Z,101632.59
2023-03-20T04:08:53.588Z,101633.47
2023-03-20T04:11:22.289Z,101632.59
2023-03-20T04:13:52.004Z,101629.09
2023-03-20T04:16:20.624Z,101624.72
2023-03-20T04:18:48.340Z,101618.59
2023-03-20T04:21:16.778Z,101615.13
2023-03-20T04:23:44.463Z,101613.34
2023-03-20T04:26:12.196Z,101616.84
2023-03-20T04:28:39.902Z,101619.47
2023-03-20T04:31:09.153Z,101613.34
2023-03-20T04:33:37.777Z,101608.09
2023-03-20T04:36:06.461Z,101608.97
2023-03-20T04:38:34.171Z,101609.81
2023-03-20T04:41:01.869Z,101614.22
2023-03-20T04:43:29.616Z,101608.06
2023-03-20T04:45:57.364Z,101613.31
2023-03-20T04:48:27.843Z,101614.22
2023-03-20T04:50:55.580Z,101618.59
2023-03-20T04:53:24.941Z,101612.50
2023-03-20T04:55:54.367Z,101612.50
2023-03-20T04:58:22.394Z,101607.25
2023-03-20T05:00:50.177Z,101606.38
2023-03-20T05:03:17.959Z,101607.25
2023-03-20T05:05:46.988Z,101608.97
2023-03-20T05:08:14.684Z,101612.50
2023-03-20T05:10:42.352Z,101615.13
2023-03-20T05:13:10.028Z,101612.53
2023-03-20T05:15:37.808Z,101614.28
2023-03-20T05:18:05.660Z,101620.41
2023-03-20T05:20:33.393Z,101627.38
2023-03-20T05:23:04.572Z,101634.34
2023-03-20T05:25:34.547Z,101630.88
2023-03-20T05:28:02.360Z,101629.13
2023-03-20T05:30:30.051Z,101630.88
2023-03-20T05:32:57.775Z,101631.78
2023-03-20T05:35:25.511Z,101628.25
2023-03-20T05:37:53.251Z,101627.38
2023-03-20T05:40:24.160Z,101638.75
2023-03-20T05:42:52.745Z,101637.88
2023-03-20T05:45:20.608Z,101636.13
2023-03-20T05:47:48.314Z,101631.72
2023-03-20T05:50:16.207Z,101640.47
2023-03-20T05:52:43.914Z,101636.09
2023-03-20T05:55:12.048Z,101641.31
2023-03-20T05:57:41.146Z,101636.94
2023-03-20T06:00:10.301Z,101636.91
2023-03-20T06:02:38.157Z,101650.03
2023-03-20T06:05:06.315Z,101648.25
2023-03-20T06:07:33.996Z,101646.50
2023-03-20T06:10:01.669Z,101649.97
2023-03-20T06:12:29.633Z,101649.97
2023-03-20T06:14:58.693Z,101645.63
2023-03-20T06:17:26.508Z,101656.09
2023-03-20T06:19:54.244Z,101653.47
2023-03-20T06:22:22.146Z,101656.06
2023-03-20T06:24:49.856Z,101647.31
2023-03-20T06:27:17.587Z,101654.31
2023-03-20T06:29:45.263Z,101654.31
2023-03-20T06:32:14.800Z,101656.06
2023-03-20T06:34:42.678Z,101658.63
2023-03-20T06:37:10.528Z,101652.53
2023-03-20T06:39:38.199Z,101652.53
2023-03-20T06:42:06.236Z,101649.91
2023-03-20T06:44:33.940Z,101656.88
2023-03-20T06:47:01.725Z,101654.25
2023-03-20T06:49:30.772Z,101658.63
2023-03-20T06:51:59.358Z,101658.63
2023-03-20T06:54:27.205Z,101664.75
2023-03-20T06:56:54.890Z,101663.88
2023-03-20T06:59:23.620Z,101662.13
2023-03-20T07:01:52.690Z,101664.75
2023-03-20T07:04:20.607Z,101659.50
2023-03-20T07:06:49.731Z,101657.78
2023-03-20T07:09:18.532Z,101659.50
2023-03-20T07:11:46.839Z,101661.22
2023-03-20T07:14:14.974Z,101662.97
2023-03-20T07:16:42.827Z,101664.75
2023-03-20T07:19:11.222Z,101667.38
2023-03-20T07:21:38.947Z,101660.34
2023-03-20T07:24:08.316Z,101661.22
2023-03-20T07:26:36.026Z,101661.09
2023-03-20T07:29:03.849Z,101664.56
2023-03-20T07:31:32.266Z,101662.75
2023-03-20T07:33:59.983Z,101666.25
2023-03-20T07:36:27.679Z,101660.13
2023-03-20T07:38:55.529Z,101667.97
2023-03-20T07:41:24.556Z,101671.47
2023-03-20T07:43:52.242Z,101669.69
2023-03-20T07:46:20.074Z,101674.06
2023-03-20T07:48:47.784Z,101667.97
2023-03-20T07:51:15.515Z,101677.59
2023-03-20T07:53:43.229Z,101673.22
2023-03-20T07:56:11.449Z,101674.09
2023-03-20T07:58:40.543Z,101678.47
2023-03-20T08:01:08.216Z,101679.38
2023-03-20T08:03:35.964Z,101684.63
2023-03-20T08:06:06.344Z,101679.41
2023-03-20T08:08:34.505Z,101689.91
2023-03-20T08:11:02.217Z,101693.44
2023-03-20T08:13:29.943Z,101693.44
2023-03-20T08:15:59.201Z,101691.69
2023-03-20T08:18:26.899Z,101687.28
2023-03-20T08:20:54.592Z,101690.81
2023-03-20T08:23:22.406Z,101700.41
2023-03-20T08:25:50.294Z,101694.31
2023-03-20T08:28:17.976Z,101692.56
2023-03-20T08:30:45.772Z,101683.84
2023-03-20T08:33:15.028Z,101688.19
2023-03-20T08:35:43.426Z,101696.97
2023-03-20T08:38:11.585Z,101686.47
2023-03-20T08:40:41.411Z,101687.34
2023-03-20T08:43:09.301Z,101690.81
2023-03-20T08:45:37.263Z,101680.31
2023-03-20T08:48:05.305Z,101677.69
2023-03-20T08:50:34.601Z,101682.94
2023-03-20T08:53:02.379Z,101682.03
2023-03-20T08:55:30.051Z,101680.31
2023-03-20T08:57:58.245Z,101681.22
2023-03-20T09:00:26.045Z,101680.31
2023-03-20T09:02:53.956Z,101678.59
2023-03-20T09:05:21.682Z,101677.69
2023-03-20T09:07:51.382Z,101677.69
2023-03-20T09:10:19.141Z,101674.19
2023-03-20T09:12:46.838Z,101672.41
2023-03-20T09:15:14.503Z,101686.44
2023-03-20T09:17:42.608Z,101689.91
2023-03-20T09:20:11.402Z,101703.03
2023-03-20T09:22:41.116Z,101695.16
2023-03-20T09:25:10.709Z,101696.94
2023-03-20T09:27:38.414Z,101699.56
2023-03-20T09:30:07.489Z,101697.78
2023-03-20T09:32:35.527Z,101696.94
2023-03-20T09:35:03.259Z,101698.69
2023-03-20T09:37:31.011Z,101706.56
2023-03-20T09:39:58.756Z,101708.28
2023-03-20T09:42:33.988Z,101701.31
2023-03-20T09:45:05.075Z,101706.56
2023-03-20T09:47:34.766Z,101708.28
2023-03-20T09:50:14.503Z,101710.91
2023-03-20T09:52:43.287Z,101707.41
2023-03-20T09:55:14.358Z,101702.13
2023-03-20T09:57:44.371Z,101697.75
2023-03-20T10:00:16.393Z,101706.53
2023-03-20T10:02:47.777Z,101704.78
2023-03-20T10:05:19.833Z,101706.53
2023-03-20T10:07:47.535Z,101708.28
2023-03-20T10:10:15.761Z,101703.84
2023-03-20T10:12:54.334Z,101700.38
2023-03-20T10:15:23.138Z,101703.00
2023-03-20T10:17:55.201Z,101695.97
2023-03-20T10:20:26.859Z,101691.59
2023-03-20T10:22:55.801Z,101695.94
2023-03-20T10:25:29.207Z,101691.56
2023-03-20T10:27:59.982Z,101687.16
2023-03-20T10:30:33.939Z,101678.38
2023-03-20T10:33:09.035Z,101681.91
2023-03-20T10:35:40.020Z,101688.03
2023-03-20T10:38:24.929Z,101681.06
2023-03-20T10:40:52.795Z,101678.44
2023-03-20T10:43:22.498Z,101674.91
2023-03-20T10:45:51.559Z,101675.81
2023-03-20T10:48:22.630Z,101667.06
2023-03-20T10:50:52.415Z,101667.94
2023-03-20T10:53:28.042Z,101672.28
2023-03-20T10:55:58.426Z,101677.53
2023-03-20T10:58:27.940Z,101667.88
2023-03-20T11:00:56.139Z,101674.84
2023-03-20T11:03:24.790Z,101661.69
2023-03-20T11:06:08.480Z,101679.16
2023-03-20T11:08:38.289Z,101672.97
2023-03-20T11:11:06.596Z,101679.91
2023-03-20T11:13:36.472Z,101672.81
2023-03-20T11:16:19.493Z,101675.31
2023-03-20T11:18:50.073Z,101674.28
2023-03-20T11:21:23.092Z,101671.50
2023-03-20T11:23:50.871Z,101676.69
2023-03-20T11:26:19.059Z,101668.69
2023-03-20T11:28:52.717Z,101660.75
2023-03-20T11:31:22.455Z,101656.25
2023-03-20T11:33:53.095Z,101657.88
2023-03-20T11:36:27.881Z,101659.53
2023-03-20T11:38:59.706Z,101655.06
2023-03-20T11:41:28.806Z,101652.41
2023-03-20T11:43:58.687Z,101647.03
2023-03-20T11:46:26.747Z,101657.50
2023-03-20T11:49:07.914Z,101652.13
2023-03-20T11:51:36.462Z,101651.25
2023-03-20T11:54:04.990Z,101648.53
2023-03-20T11:56:33.684Z,101658.16
2023-03-20T11:59:04.205Z,101650.25
2023-03-20T12:01:39.162Z,101649.41
2023-03-20T12:04:08.264Z,101655.53
2023-03-20T12:06:42.710Z,101652.94
2023-03-20T12:09:13.724Z,101652.06
2023-03-20T12:11:47.576Z,101652.06
2023-03-20T12:14:24.774Z,101651.16
2023-03-20T12:16:54.834Z,101654.69
2023-03-20T12:19:24.869Z,101656.44
2023-03-20T12:21:55.340Z,101657.34
2023-03-20T12:24:28.153Z,101655.59
2023-03-20T12:26:57.766Z,101644.19
2023-03-20T12:29:29.962Z,101645.94
2023-03-20T12:31:59.440Z,101650.34
2023-03-20T12:34:29.035Z,101648.63
2023-03-20T12:36:57.493Z,101642.47
2023-03-20T12:39:28.208Z,101646.00
2023-03-20T12:42:06.795Z,101649.50
2023-03-20T12:44:39.376Z,101646.94
2023-03-20T12:47:14.692Z,101646.06
2023-03-20T12:49:46.611Z,101643.41
2023-03-20T12:52:16.613Z,101645.16
2023-03-20T12:54:56.774Z,101642.50
2023-03-20T12:57:26.828Z,101631.16
2023-03-20T13:00:05.526Z,101625.88
2023-03-20T13:02:36.365Z,101635.50
2023-03-20T13:05:12.072Z,101639.03
2023-03-20T13:07:47.341Z,101637.22
2023-03-20T13:10:20.644Z,101630.22
2023-03-20T13:12:53.623Z,101631.06
2023-03-20T13:15:28.193Z,101624.97
2023-03-20T13:17:59.614Z,101617.03
2023-03-20T13:20:28.224Z,101620.50
2023-03-20T13:23:01.060Z,101619.59
2023-03-20T13:25:46.761Z,101623.94
2023-03-20T13:28:16.923Z,101612.59
2023-03-20T13:30:49.008Z,101617.81
2023-03-20T13:33:24.272Z,101622.16
2023-03-20T13:35:53.881Z,101616.00
2023-03-20T13:38:22.684Z,101616.88
2023-03-20T13:40:51.956Z,101607.19
2023-03-20T13:43:25.443Z,101614.19
2023-03-20T13:45:57.561Z,101608.91
2023-03-20T13:48:30.938Z,101608.06
2023-03-20T13:51:02.419Z,101608.06
2023-03-20T13:53:31.380Z,101613.31
2023-03-20T13:56:03.512Z,101617.75
2023-03-20T13:58:44.023Z,101618.63
2023-03-20T14:01:15.929Z,101619.50
2023-03-20T14:03:45.509Z,101615.97
2023-03-20T14:06:18.944Z,101613.31
2023-03-20T14:08:49.241Z,101614.19
2023-03-20T14:11:32.525Z,101618.59
2023-03-20T14:14:01.933Z,101613.34
2023-03-20T14:16:30.964Z,101621.25
2023-03-20T14:19:11.098Z,101623.84
2023-03-20T14:21:40.591Z,101609.84
2023-03-20T14:24:09.141Z,101622.16
2023-03-20T14:26:37.894Z,101626.50
2023-03-20T14:29:22.980Z,101624.72
2023-03-20T14:31:52.251Z,101622.06
2023-03-20T14:34:23.308Z,101620.31
2023-03-20T14:36:58.440Z,101610.66
2023-03-20T14:39:44.606Z,101615.91
2023-03-20T14:42:28.097Z,101615.06
2023-03-20T14:45:07.543Z,101624.72
2023-03-20T14:47:40.079Z,101621.25
2023-03-20T14:50:11.560Z,101617.78
2023-03-20T14:52:47.335Z,101623.09
2023-03-20T14:55:27.980Z,101623.94
2023-03-20T14:57:57.320Z,101631.84
2023-03-20T15:00:26.136Z,101637.16
2023-03-20T15:03:06.270Z,101629.28
2023-03-20T15:05:34.966Z,101637.16
2023-03-20T15:08:05.487Z,101630.13
2023-03-20T15:10:33.527Z,101628.38
2023-03-20T15:13:01.199Z,101625.75
2023-03-20T15:15:31.543Z,101633.66
2023-03-20T15:18:06.245Z,101623.16
2023-03-20T15:20:36.745Z,101624.94
2023-03-20T15:23:04.965Z,101622.31
2023-03-20T15:25:34.052Z,101620.53
2023-03-20T15:28:05.708Z,101624.06
2023-03-20T15:30:34.174Z,101609.19
2023-03-20T15:33:01.994Z,101613.56
2023-03-20T15:35:31.288Z,101610.09
2023-03-20T15:37:59.700Z,101603.09
2023-03-20T15:40:37.129Z,101603.97
2023-03-20T15:43:13.921Z,101603.09
2023-03-20T15:45:43.284Z,101602.22
2023-03-20T15:48:15.337Z,101601.34
2023-03-20T15:50:46.152Z,101589.09
2023-03-20T15:53:17.963Z,101582.94
2023-03-20T15:55:48.877Z,101581.19
2023-03-20T15:58:16.627Z,101574.16
2023-03-20T16:00:45.629Z,101567.09
2023-03-20T16:03:16.939Z,101565.38
2023-03-20T16:05:46.489Z,101570.66
2023-03-20T16:08:14.665Z,101571.50
2023-03-20T16:10:42.926Z,101572.41
2023-03-20T16:13:12.688Z,101577.69
2023-03-20T16:15:40.619Z,101570.66
2023-03-20T16:18:08.507Z,101568.88
2023-03-20T16:20:37.512Z,101568.88
2023-03-20T16:23:07.820Z,101574.16
2023-03-20T16:25:35.606Z,101574.16
2023-03-20T16:28:03.376Z,101571.50
2023-03-20T16:30:31.904Z,101574.19
2023-03-20T16:33:01.049Z,101570.66
2023-03-20T16:35:31.069Z,101578.59
2023-03-20T16:37:59.381Z,101576.84
2023-03-20T16:40:33.041Z,101576.84
2023-03-20T16:43:06.740Z,101574.19
2023-03-20T16:45:35.319Z,101578.59
2023-03-20T16:48:31.491Z,101587.34
2023-03-20T16:51:00.942Z,101588.22
2023-03-20T16:53:29.937Z,101587.38
2023-03-20T16:55:59.390Z,101591.75
2023-03-20T16:58:29.578Z,101594.38
2023-03-20T17:00:59.634Z,101585.63
2023-03-20T17:03:28.418Z,101597.03
2023-03-20T17:05:57.353Z,101597.94
2023-03-20T17:08:30.543Z,101595.28
2023-03-20T17:11:01.546Z,101588.31
2023-03-20T17:13:29.284Z,101594.41
2023-03-20T17:15:56.975Z,101597.91
2023-03-20T17:18:24.778Z,101598.78
2023-03-20T17:20:52.572Z,101610.16
2023-03-20T17:23:21.682Z,101609.28
2023-03-20T17:25:50.048Z,101612.81
2023-03-20T17:28:21.309Z,101616.31
2023-03-20T17:30:50.239Z,101614.53
2023-03-20T17:33:19.034Z,101619.75
2023-03-20T17:35:47.744Z,101617.13
2023-03-20T17:38:19.788Z,101619.75
2023-03-20T17:40:47.499Z,101630.25
2023-03-20T17:43:15.610Z,101619.75
2023-03-20T17:45:44.691Z,101618.88
2023-03-20T17:48:16.599Z,101621.44
2023-03-20T17:50:45.317Z,101613.56
2023-03-20T17:53:17.243Z,101617.09
2023-03-20T17:55:45.044Z,101624.97
2023-03-20T17:58:20.930Z,101621.44
2023-03-20T18:00:50.054Z,101618.81
2023-03-20T18:03:18.170Z,101619.69
2023-03-20T18:05:46.440Z,101621.47
2023-03-20T18:08:14.932Z,101621.44
2023-03-20T18:10:42.800Z,101628.47
2023-03-20T18:13:10.565Z,101620.53
2023-03-20T18:15:40.269Z,101617.03
2023-03-20T18:18:09.581Z,101614.44
2023-03-20T18:20:38.545Z,101615.28
2023-03-20T18:23:06.450Z,101621.41
2023-03-20T18:25:34.288Z,101626.66
2023-03-20T18:28:02.631Z,101622.31
2023-03-20T18:30:31.567Z,101619.69
2023-03-20T18:32:59.239Z,101622.31
2023-03-20T18:35:28.347Z,101624.03
2023-03-20T18:37:56.153Z,101625.75
2023-03-20T18:40:26.080Z,101621.38
2023-03-20T18:42:54.003Z,101619.59
2023-03-20T18:45:22.378Z,101615.22
2023-03-20T18:47:50.188Z,101627.50
2023-03-20T18:50:24.634Z,101626.63
2023-03-20T18:52:54.016Z,101623.13
2023-03-20T18:55:22.920Z,101616.97
2023-03-20T18:57:50.816Z,101615.22
2023-03-20T19:00:21.840Z,101617.84
2023-03-20T19:02:49.768Z,101612.59
2023-03-20T19:05:18.209Z,101613.44
2023-03-20T19:07:46.002Z,101602.91
2023-03-20T19:10:24.655Z,101602.91
2023-03-20T19:12:52.500Z,101602.91
2023-03-20T19:15:20.521Z,101602.03
2023-03-20T19:17:48.299Z,101601.16
2023-03-20T19:20:33.831Z,101597.63
2023-03-20T19:23:02.601Z,101609.94
2023-03-20T19:25:32.017Z,101602.03
2023-03-20T19:27:59.775Z,101598.53
2023-03-20T19:30:29.972Z,101599.41
2023-03-20T19:32:58.227Z,101600.28
2023-03-20T19:36:01.034Z,101599.41
2023-03-20T19:38:15.193Z,101593.25
2023-03-20T19:40:44.881Z,101592.38
2023-03-20T19:43:12.602Z,101598.53
2023-03-20T19:45:41.443Z,101594.16
2023-03-20T19:48:14.084Z,101589.75
2023-03-20T19:50:43.754Z,101593.25
2023-03-20T19:53:12.417Z,101588.91
2023-03-20T19:55:40.497Z,101579.28
2023-03-20T19:58:09.661Z,101584.50
2023-03-20T20:03:26.476Z,101581.00
2023-03-20T20:05:54.281Z,101583.63
2023-03-20T20:08:44.765Z,101590.66
2023-03-20T20:11:11.865Z,101589.75
2023-03-20T20:14:03.833Z,101582.75
2023-03-20T20:16:29.243Z,101588.00
2023-03-20T20:18:57.052Z,101582.75
2023-03-20T20:24:12.640Z,101580.09
2023-03-20T20:26:49.452Z,101583.63
2023-03-20T20:29:24.393Z,101581.00
2023-03-20T20:31:52.232Z,101579.22
2023-03-20T20:39:56.019Z,101581.84
2023-03-20T20:42:23.776Z,101588.00
2023-03-20T20:44:52.851Z,101586.25
2023-03-20T20:47:21.244Z,101582.75
2023-03-20T20:49:49.033Z,101584.50
2023-03-20T20:52:17.464Z,101590.63
2023-03-20T20:54:45.175Z,101586.28
2023-03-20T20:57:12.929Z,101594.16
2023-03-20T20:59:41.119Z,101588.00
2023-03-20T21:02:11.864Z,101587.13
2023-03-20T21:04:40.098Z,101587.06
2023-03-20T21:07:10.616Z,101596.75
2023-03-20T21:09:39.402Z,101584.44
2023-03-20T21:12:08.250Z,101590.56
2023-03-20T21:14:36.184Z,101589.69
2023-03-20T21:17:03.974Z,101594.94
2023-03-20T21:19:36.167Z,101592.31
2023-03-20T21:22:04.338Z,101596.66
2023-03-20T21:24:34.543Z,101587.03
2023-03-20T21:27:02.581Z,101597.53
2023-03-20T21:29:30.704Z,101586.13
2023-03-20T21:31:58.511Z,101588.75
2023-03-20T21:34:26.416Z,101592.28
2023-03-20T21:36:56.113Z,101578.22
2023-03-20T21:39:25.035Z,101587.88
2023-03-20T21:41:52.861Z,101581.75
2023-03-20T21:44:57.419Z,101586.13
2023-03-20T21:50:45.922Z,101586.22
2023-03-20T21:53:23.990Z,101587.94
2023-03-20T21:59:02.942Z,101584.44
2023-03-20T22:10:37.600Z,101565.19
2023-03-20T22:18:50.918Z,101577.47
2023-03-20T22:21:36.471Z,101566.94
2023-03-20T22:24:21.140Z,101573.97
2023-03-20T22:29:52.453Z,101574.84
2023-03-20T22:32:41.072Z,101575.75
2023-03-20T22:44:24.875Z,101571.34
2023-03-20T22:46:16.826Z,101572.22
2023-03-20T22:48:48.784Z,101572.22
2023-03-20T22:51:18.270Z,101566.94
2023-03-20T22:53:46.074Z,101571.34
2023-03-20T22:56:13.809Z,101571.34
2023-03-20T22:58:42.859Z,101571.41
2023-03-20T23:01:10.705Z,101569.59
2023-03-20T23:03:41.895Z,101563.50
2023-03-20T23:06:10.892Z,101566.06
2023-03-20T23:08:49.211Z,101559.97
2023-03-20T23:11:22.365Z,101559.09
2023-03-20T23:13:51.781Z,101557.31
2023-03-20T23:16:19.576Z,101547.63
2023-03-20T23:18:47.278Z,101553.78
2023-03-20T23:21:14.959Z,101559.03
2023-03-20T23:23:42.652Z,101551.97
2023-03-20T23:26:11.321Z,101544.94
2023-03-20T23:28:39.361Z,101551.97
2023-03-20T23:31:11.118Z,101546.69
2023-03-20T23:33:39.257Z,101544.06
2023-03-20T23:36:19.014Z,101545.84
2023-03-20T23:38:55.475Z,101538.81
2023-03-20T23:41:49.351Z,101548.47
2023-03-20T23:44:10.869Z,101540.56
2023-03-20T23:46:39.909Z,101543.19
2023-03-20T23:49:07.626Z,101540.50
2023-03-20T23:51:35.416Z,101542.28
2023-03-20T23:54:03.117Z,101542.28
2023-03-20T23:56:30.910Z,101539.66
2023-03-20T23:59:08.069Z,101529.97
